Griffith, Mississippi
Current Conditions -  °F | °C
As of 11:35 PM on Thursday 27 Nov 2014 (Local Time) from KSTF Reporting Station
NA  
Wind Chill: 28°   Ceiling: NA
Heat Index: 28°   Visibility: NA
Dew Point: 27°   Wind: 0mph
Humidity: 93%   Direction: NA
Pressure: 30.47"   Gusts: NA
Location:  33.6258°N, 88.8428°W
Report Text: KSTF 280535Z AUTO 00000KT M02/M03 A3047 RMK AO2 PWINO
Loading
Personal Weather Stations






























Interactive Weather Map New forecast layout! Learn more

10-Day Weather Forecast

Advertisements
Track Severe Weather on mobile